sensor_id;sensor_type;location;lat;lon;timestamp;temperature;humidity
37478;DHT22;23334;54.316;10.182;2022-09-27T00:02:12;11.10;99.90
37478;DHT22;23334;54.316;10.182;2022-09-27T00:04:38;11.10;99.90
37478;DHT22;23334;54.316;10.182;2022-09-27T00:07:03;11.10;99.90
37478;DHT22;23334;54.316;10.182;2022-09-27T00:09:29;11.10;99.90
37478;DHT22;23334;54.316;10.182;2022-09-27T00:11:55;11.10;99.90
37478;DHT22;23334;54.316;10.182;2022-09-27T00:14:20;11.10;99.90
37478;DHT22;23334;54.316;10.182;2022-09-27T00:16:46;11.10;99.90
37478;DHT22;23334;54.316;10.182;2022-09-27T00:19:17;11.10;99.90
37478;DHT22;23334;54.316;10.182;2022-09-27T00:21:44;11.10;99.90
37478;DHT22;23334;54.316;10.182;2022-09-27T00:24:12;11.10;99.90
37478;DHT22;23334;54.316;10.182;2022-09-27T00:26:38;11.10;99.90
37478;DHT22;23334;54.316;10.182;2022-09-27T00:29:04;11.10;99.90
37478;DHT22;23334;54.316;10.182;2022-09-27T00:31:30;11.10;99.90
37478;DHT22;23334;54.316;10.182;2022-09-27T00:33:58;11.00;99.90
37478;DHT22;23334;54.316;10.182;2022-09-27T00:36:24;11.10;99.90
37478;DHT22;23334;54.316;10.182;2022-09-27T00:38:50;11.10;99.90
37478;DHT22;23334;54.316;10.182;2022-09-27T00:41:30;11.10;99.90
37478;DHT22;23334;54.316;10.182;2022-09-27T00:49:31;11.00;99.90
37478;DHT22;23334;54.316;10.182;2022-09-27T00:52:04;11.00;99.90
37478;DHT22;23334;54.316;10.182;2022-09-27T00:54:33;11.10;99.90
37478;DHT22;23334;54.316;10.182;2022-09-27T00:57:02;11.00;99.90
37478;DHT22;23334;54.316;10.182;2022-09-27T00:59:42;11.00;99.90
37478;DHT22;23334;54.316;10.182;2022-09-27T01:02:09;11.00;99.90
37478;DHT22;23334;54.316;10.182;2022-09-27T01:04:37;11.00;99.90
37478;DHT22;23334;54.316;10.182;2022-09-27T01:07:03;11.40;99.90
37478;DHT22;23334;54.316;10.182;2022-09-27T01:09:29;11.00;99.90
37478;DHT22;23334;54.316;10.182;2022-09-27T01:17:55;11.00;99.90
37478;DHT22;23334;54.316;10.182;2022-09-27T01:20:54;11.00;99.90
37478;DHT22;23334;54.316;10.182;2022-09-27T01:23:50;11.00;99.90
37478;DHT22;23334;54.316;10.182;2022-09-27T01:32:27;11.00;99.90
37478;DHT22;23334;54.316;10.182;2022-09-27T01:35:04;11.00;99.90
37478;DHT22;23334;54.316;10.182;2022-09-27T01:40:19;11.00;99.90
37478;DHT22;23334;54.316;10.182;2022-09-27T01:43:12;11.00;99.90
37478;DHT22;23334;54.316;10.182;2022-09-27T01:45:45;11.00;99.90
37478;DHT22;23334;54.316;10.182;2022-09-27T01:48:27;11.00;99.90
37478;DHT22;23334;54.316;10.182;2022-09-27T01:51:04;11.00;99.90
37478;DHT22;23334;54.316;10.182;2022-09-27T01:53:36;11.10;99.90
37478;DHT22;23334;54.316;10.182;2022-09-27T01:56:07;11.00;99.90
37478;DHT22;23334;54.316;10.182;2022-09-27T01:58:46;11.00;99.90
37478;DHT22;23334;54.316;10.182;2022-09-27T02:01:15;11.00;99.90
37478;DHT22;23334;54.316;10.182;2022-09-27T02:03:47;11.00;99.90
37478;DHT22;23334;54.316;10.182;2022-09-27T02:06:18;11.00;99.90
37478;DHT22;23334;54.316;10.182;2022-09-27T02:08:58;11.10;99.90
37478;DHT22;23334;54.316;10.182;2022-09-27T02:11:26;10.90;99.90
37478;DHT22;23334;54.316;10.182;2022-09-27T02:14:18;11.00;99.90
37478;DHT22;23334;54.316;10.182;2022-09-27T02:16:52;14.30;99.90
37478;DHT22;23334;54.316;10.182;2022-09-27T02:22:34;11.00;99.90
37478;DHT22;23334;54.316;10.182;2022-09-27T02:25:15;11.00;99.90
37478;DHT22;23334;54.316;10.182;2022-09-27T02:28:00;11.00;99.90
37478;DHT22;23334;54.316;10.182;2022-09-27T02:30:31;11.00;99.90
37478;DHT22;23334;54.316;10.182;2022-09-27T02:32:56;11.00;99.90
37478;DHT22;23334;54.316;10.182;2022-09-27T02:35:25;11.00;99.90
37478;DHT22;23334;54.316;10.182;2022-09-27T02:37:52;10.90;99.90
37478;DHT22;23334;54.316;10.182;2022-09-27T02:40:18;11.00;99.90
37478;DHT22;23334;54.316;10.182;2022-09-27T02:42:44;11.00;99.90
37478;DHT22;23334;54.316;10.182;2022-09-27T02:45:12;11.00;99.90
37478;DHT22;23334;54.316;10.182;2022-09-27T02:48:05;11.00;99.90
37478;DHT22;23334;54.316;10.182;2022-09-27T02:51:09;11.00;99.90
37478;DHT22;23334;54.316;10.182;2022-09-27T02:53:44;11.00;99.90
37478;DHT22;23334;54.316;10.182;2022-09-27T02:56:26;10.90;99.90
37478;DHT22;23334;54.316;10.182;2022-09-27T02:59:11;10.90;99.90
37478;DHT22;23334;54.316;10.182;2022-09-27T03:04:54;10.90;99.90
37478;DHT22;23334;54.316;10.182;2022-09-27T03:07:21;10.90;99.90
37478;DHT22;23334;54.316;10.182;2022-09-27T03:09:49;11.00;99.90
37478;DHT22;23334;54.316;10.182;2022-09-27T03:12:16;10.90;99.90
37478;DHT22;23334;54.316;10.182;2022-09-27T03:14:50;11.00;99.90
37478;DHT22;23334;54.316;10.182;2022-09-27T03:17:16;11.00;99.90
37478;DHT22;23334;54.316;10.182;2022-09-27T03:19:41;11.00;99.90
37478;DHT22;23334;54.316;10.182;2022-09-27T03:22:08;10.90;99.90
37478;DHT22;23334;54.316;10.182;2022-09-27T03:24:33;10.90;99.90
37478;DHT22;23334;54.316;10.182;2022-09-27T03:26:59;10.90;99.90
37478;DHT22;23334;54.316;10.182;2022-09-27T03:29:24;10.90;99.90
37478;DHT22;23334;54.316;10.182;2022-09-27T03:31:50;10.90;99.90
37478;DHT22;23334;54.316;10.182;2022-09-27T03:34:15;10.90;99.90
37478;DHT22;23334;54.316;10.182;2022-09-27T03:36:40;10.90;99.90
37478;DHT22;23334;54.316;10.182;2022-09-27T03:39:06;10.90;99.90
37478;DHT22;23334;54.316;10.182;2022-09-27T03:41:31;10.70;99.90
37478;DHT22;23334;54.316;10.182;2022-09-27T03:43:57;10.90;99.90
37478;DHT22;23334;54.316;10.182;2022-09-27T03:48:50;10.90;99.90
37478;DHT22;23334;54.316;10.182;2022-09-27T03:51:15;10.90;99.90
37478;DHT22;23334;54.316;10.182;2022-09-27T03:53:41;10.90;99.90
37478;DHT22;23334;54.316;10.182;2022-09-27T03:56:07;11.00;99.90
37478;DHT22;23334;54.316;10.182;2022-09-27T03:58:33;11.00;99.90
37478;DHT22;23334;54.316;10.182;2022-09-27T04:00:58;10.90;99.90
37478;DHT22;23334;54.316;10.182;2022-09-27T04:03:24;10.90;99.90
37478;DHT22;23334;54.316;10.182;2022-09-27T04:05:51;10.90;99.90
37478;DHT22;23334;54.316;10.182;2022-09-27T04:08:17;10.90;99.90
37478;DHT22;23334;54.316;10.182;2022-09-27T04:10:43;10.90;99.90
37478;DHT22;23334;54.316;10.182;2022-09-27T04:13:08;10.80;99.90
37478;DHT22;23334;54.316;10.182;2022-09-27T04:15:34;10.90;99.90
37478;DHT22;23334;54.316;10.182;2022-09-27T04:17:59;10.90;99.90
37478;DHT22;23334;54.316;10.182;2022-09-27T04:20:25;10.90;99.90
37478;DHT22;23334;54.316;10.182;2022-09-27T04:22:50;10.80;99.90
37478;DHT22;23334;54.316;10.182;2022-09-27T04:25:16;10.80;99.90
37478;DHT22;23334;54.316;10.182;2022-09-27T04:27:45;10.80;99.90
37478;DHT22;23334;54.316;10.182;2022-09-27T04:30:12;10.80;99.90
37478;DHT22;23334;54.316;10.182;2022-09-27T04:32:41;10.80;99.90
37478;DHT22;23334;54.316;10.182;2022-09-27T04:35:08;10.80;99.90
37478;DHT22;23334;54.316;10.182;2022-09-27T04:37:52;10.80;99.90
37478;DHT22;23334;54.316;10.182;2022-09-27T04:40:17;10.80;99.90
37478;DHT22;23334;54.316;10.182;2022-09-27T04:42:44;10.80;99.90
37478;DHT22;23334;54.316;10.182;2022-09-27T04:47:42;10.80;99.90
37478;DHT22;23334;54.316;10.182;2022-09-27T04:52:33;10.70;99.90
37478;DHT22;23334;54.316;10.182;2022-09-27T04:54:59;10.70;99.90
37478;DHT22;23334;54.316;10.182;2022-09-27T04:57:24;10.80;99.90
37478;DHT22;23334;54.316;10.182;2022-09-27T04:59:49;10.70;99.90
37478;DHT22;23334;54.316;10.182;2022-09-27T05:02:16;10.70;99.90
37478;DHT22;23334;54.316;10.182;2022-09-27T05:04:41;10.80;99.90
37478;DHT22;23334;54.316;10.182;2022-09-27T05:07:06;10.70;99.90
37478;DHT22;23334;54.316;10.182;2022-09-27T05:11:58;10.70;99.90
37478;DHT22;23334;54.316;10.182;2022-09-27T05:14:23;10.60;99.90
37478;DHT22;23334;54.316;10.182;2022-09-27T05:16:49;10.70;99.90
37478;DHT22;23334;54.316;10.182;2022-09-27T05:19:15;10.70;99.90
37478;DHT22;23334;54.316;10.182;2022-09-27T05:21:41;10.70;99.90
37478;DHT22;23334;54.316;10.182;2022-09-27T05:24:08;10.70;99.90
37478;DHT22;23334;54.316;10.182;2022-09-27T05:26:33;10.70;99.90
37478;DHT22;23334;54.316;10.182;2022-09-27T05:28:58;10.70;99.90
37478;DHT22;23334;54.316;10.182;2022-09-27T05:33:51;10.70;99.90
37478;DHT22;23334;54.316;10.182;2022-09-27T05:36:17;10.70;99.90
37478;DHT22;23334;54.316;10.182;2022-09-27T05:38:42;10.70;99.90
37478;DHT22;23334;54.316;10.182;2022-09-27T05:41:09;10.70;99.90
37478;DHT22;23334;54.316;10.182;2022-09-27T05:43:34;10.70;99.90
37478;DHT22;23334;54.316;10.182;2022-09-27T05:46:00;10.70;99.90
37478;DHT22;23334;54.316;10.182;2022-09-27T05:50:54;10.70;99.90
37478;DHT22;23334;54.316;10.182;2022-09-27T05:53:20;10.70;99.90
37478;DHT22;23334;54.316;10.182;2022-09-27T05:55:45;10.80;99.90
37478;DHT22;23334;54.316;10.182;2022-09-27T05:58:11;10.80;99.90
37478;DHT22;23334;54.316;10.182;2022-09-27T06:03:08;10.80;99.90
37478;DHT22;23334;54.316;10.182;2022-09-27T06:05:37;10.80;99.90
37478;DHT22;23334;54.316;10.182;2022-09-27T06:08:11;10.80;99.90
37478;DHT22;23334;54.316;10.182;2022-09-27T06:10:38;10.90;99.90
37478;DHT22;23334;54.316;10.182;2022-09-27T06:13:15;10.90;99.90
37478;DHT22;23334;54.316;10.182;2022-09-27T06:15:42;10.80;99.90
37478;DHT22;23334;54.316;10.182;2022-09-27T06:18:10;11.00;99.90
37478;DHT22;23334;54.316;10.182;2022-09-27T06:20:37;11.10;99.90
37478;DHT22;23334;54.316;10.182;2022-09-27T06:23:04;11.10;99.90
37478;DHT22;23334;54.316;10.182;2022-09-27T06:25:30;11.10;99.90
37478;DHT22;23334;54.316;10.182;2022-09-27T06:27:55;11.10;99.90
37478;DHT22;23334;54.316;10.182;2022-09-27T06:30:21;11.20;99.90
37478;DHT22;23334;54.316;10.182;2022-09-27T06:32:46;11.20;99.90
37478;DHT22;23334;54.316;10.182;2022-09-27T06:35:11;11.20;99.90
37478;DHT22;23334;54.316;10.182;2022-09-27T06:37:37;11.20;99.90
37478;DHT22;23334;54.316;10.182;2022-09-27T06:40:03;11.20;99.90
37478;DHT22;23334;54.316;10.182;2022-09-27T06:42:28;11.20;99.90
37478;DHT22;23334;54.316;10.182;2022-09-27T06:44:54;11.20;99.90
37478;DHT22;23334;54.316;10.182;2022-09-27T06:47:20;11.20;99.90
37478;DHT22;23334;54.316;10.182;2022-09-27T06:49:45;11.20;99.90
37478;DHT22;23334;54.316;10.182;2022-09-27T06:54:37;11.30;99.90
37478;DHT22;23334;54.316;10.182;2022-09-27T06:59:28;11.30;99.90
37478;DHT22;23334;54.316;10.182;2022-09-27T07:02:12;11.40;99.90
37478;DHT22;23334;54.316;10.182;2022-09-27T07:04:38;11.50;99.90
37478;DHT22;23334;54.316;10.182;2022-09-27T07:07:03;15.00;99.90
37478;DHT22;23334;54.316;10.182;2022-09-27T07:11:55;11.60;99.90
37478;DHT22;23334;54.316;10.182;2022-09-27T07:14:20;11.60;99.90
37478;DHT22;23334;54.316;10.182;2022-09-27T07:16:46;11.70;99.90
37478;DHT22;23334;54.316;10.182;2022-09-27T07:19:12;11.60;99.90
37478;DHT22;23334;54.316;10.182;2022-09-27T07:21:38;11.80;99.90
37478;DHT22;23334;54.316;10.182;2022-09-27T07:24:04;11.90;99.90
37478;DHT22;23334;54.316;10.182;2022-09-27T07:28:55;12.20;99.90
37478;DHT22;23334;54.316;10.182;2022-09-27T07:31:21;12.20;99.90
37478;DHT22;23334;54.316;10.182;2022-09-27T07:33:49;12.30;99.90
37478;DHT22;23334;54.316;10.182;2022-09-27T07:36:14;12.40;99.90
37478;DHT22;23334;54.316;10.182;2022-09-27T07:38:40;12.40;99.90
37478;DHT22;23334;54.316;10.182;2022-09-27T07:41:11;12.50;99.90
37478;DHT22;23334;54.316;10.182;2022-09-27T07:43:38;12.40;99.90
37478;DHT22;23334;54.316;10.182;2022-09-27T07:46:04;12.40;99.90
37478;DHT22;23334;54.316;10.182;2022-09-27T07:48:30;12.30;99.90
37478;DHT22;23334;54.316;10.182;2022-09-27T07:50:56;12.30;99.90
37478;DHT22;23334;54.316;10.182;2022-09-27T07:53:21;12.30;99.90
37478;DHT22;23334;54.316;10.182;2022-09-27T07:55:52;12.30;99.90
37478;DHT22;23334;54.316;10.182;2022-09-27T07:58:19;12.20;99.90
37478;DHT22;23334;54.316;10.182;2022-09-27T08:00:45;12.20;99.90
37478;DHT22;23334;54.316;10.182;2022-09-27T08:03:12;12.30;99.90
37478;DHT22;23334;54.316;10.182;2022-09-27T08:05:41;12.20;99.90
37478;DHT22;23334;54.316;10.182;2022-09-27T08:08:06;12.20;99.90
37478;DHT22;23334;54.316;10.182;2022-09-27T08:10:32;12.30;99.90
37478;DHT22;23334;54.316;10.182;2022-09-27T08:13:00;12.40;99.90
37478;DHT22;23334;54.316;10.182;2022-09-27T08:15:33;12.50;99.90
37478;DHT22;23334;54.316;10.182;2022-09-27T08:18:00;12.50;99.90
37478;DHT22;23334;54.316;10.182;2022-09-27T08:20:25;12.50;99.90
37478;DHT22;23334;54.316;10.182;2022-09-27T08:22:51;12.50;99.90
37478;DHT22;23334;54.316;10.182;2022-09-27T08:25:16;12.50;99.90
37478;DHT22;23334;54.316;10.182;2022-09-27T08:27:42;12.50;99.90
37478;DHT22;23334;54.316;10.182;2022-09-27T08:30:08;12.30;99.90
37478;DHT22;23334;54.316;10.182;2022-09-27T08:32:34;12.30;99.90
37478;DHT22;23334;54.316;10.182;2022-09-27T08:34:59;12.30;99.90
37478;DHT22;23334;54.316;10.182;2022-09-27T08:37:25;12.30;99.90
37478;DHT22;23334;54.316;10.182;2022-09-27T14:53:47;13.00;99.90
37478;DHT22;23334;54.316;10.182;2022-09-27T14:56:18;13.00;99.90
37478;DHT22;23334;54.316;10.182;2022-09-27T14:58:48;12.90;99.90
37478;DHT22;23334;54.316;10.182;2022-09-27T15:01:16;12.90;99.90
37478;DHT22;23334;54.316;10.182;2022-09-27T15:03:43;12.90;99.90
37478;DHT22;23334;54.316;10.182;2022-09-27T15:08:37;12.80;99.90
37478;DHT22;23334;54.316;10.182;2022-09-27T15:11:04;12.80;99.90
37478;DHT22;23334;54.316;10.182;2022-09-27T15:13:31;12.70;99.90
37478;DHT22;23334;54.316;10.182;2022-09-27T15:21:06;12.70;99.90
37478;DHT22;23334;54.316;10.182;2022-09-27T15:23:38;12.80;99.90
37478;DHT22;23334;54.316;10.182;2022-09-27T15:26:22;12.60;99.90
37478;DHT22;23334;54.316;10.182;2022-09-27T15:28:50;12.70;99.90
37478;DHT22;23334;54.316;10.182;2022-09-27T15:31:29;12.80;99.90
37478;DHT22;23334;54.316;10.182;2022-09-27T15:33:56;12.90;99.90
37478;DHT22;23334;54.316;10.182;2022-09-27T15:39:07;13.00;99.90
37478;DHT22;23334;54.316;10.182;2022-09-27T15:42:07;13.10;99.90
37478;DHT22;23334;54.316;10.182;2022-09-27T15:44:35;13.10;99.90
37478;DHT22;23334;54.316;10.182;2022-09-27T15:49:31;13.00;99.90
37478;DHT22;23334;54.316;10.182;2022-09-27T15:52:03;12.90;99.90
37478;DHT22;23334;54.316;10.182;2022-09-27T15:54:30;12.80;99.90
37478;DHT22;23334;54.316;10.182;2022-09-27T15:57:02;12.70;99.90
37478;DHT22;23334;54.316;10.182;2022-09-27T15:59:32;12.60;99.90
37478;DHT22;23334;54.316;10.182;2022-09-27T16:02:08;12.50;99.90
37478;DHT22;23334;54.316;10.182;2022-09-27T16:07:01;12.40;99.90
37478;DHT22;23334;54.316;10.182;2022-09-27T16:16:51;12.20;99.90
37478;DHT22;23334;54.316;10.182;2022-09-27T16:26:37;11.90;99.90
37478;DHT22;23334;54.316;10.182;2022-09-27T16:29:08;11.80;99.90
37478;DHT22;23334;54.316;10.182;2022-09-27T16:38:53;11.70;99.90
37478;DHT22;23334;54.316;10.182;2022-09-27T16:41:20;11.60;99.90
37478;DHT22;23334;54.316;10.182;2022-09-27T16:43:46;11.70;99.90
37478;DHT22;23334;54.316;10.182;2022-09-27T16:46:13;11.60;99.90
37478;DHT22;23334;54.316;10.182;2022-09-27T16:51:15;11.60;99.90
37478;DHT22;23334;54.316;10.182;2022-09-27T16:54:00;11.60;99.90
37478;DHT22;23334;54.316;10.182;2022-09-27T17:03:50;11.50;99.90
37478;DHT22;23334;54.316;10.182;2022-09-27T17:06:16;11.50;99.90
37478;DHT22;23334;54.316;10.182;2022-09-27T17:11:11;11.40;99.90
37478;DHT22;23334;54.316;10.182;2022-09-27T17:13:39;11.40;99.90
37478;DHT22;23334;54.316;10.182;2022-09-27T17:16:04;11.40;99.90
37478;DHT22;23334;54.316;10.182;2022-09-27T17:21:02;11.40;99.90
37478;DHT22;23334;54.316;10.182;2022-09-27T17:23:32;11.40;99.90
37478;DHT22;23334;54.316;10.182;2022-09-27T17:26:05;11.30;99.90
37478;DHT22;23334;54.316;10.182;2022-09-27T17:31:02;11.30;99.90
37478;DHT22;23334;54.316;10.182;2022-09-27T17:33:27;11.30;99.90
37478;DHT22;23334;54.316;10.182;2022-09-27T17:36:00;11.20;99.90
37478;DHT22;23334;54.316;10.182;2022-09-27T17:41:04;11.20;99.90
37478;DHT22;23334;54.316;10.182;2022-09-27T17:46:18;11.20;99.90
37478;DHT22;23334;54.316;10.182;2022-09-27T17:48:45;11.10;99.90
37478;DHT22;23334;54.316;10.182;2022-09-27T17:51:30;11.00;99.90
37478;DHT22;23334;54.316;10.182;2022-09-27T17:58:49;10.80;99.90
37478;DHT22;23334;54.316;10.182;2022-09-27T18:01:16;10.70;99.90
37478;DHT22;23334;54.316;10.182;2022-09-27T18:06:10;10.50;99.90
37478;DHT22;23334;54.316;10.182;2022-09-27T18:11:07;10.40;99.90
37478;DHT22;23334;54.316;10.182;2022-09-27T18:16:16;10.10;99.90
37478;DHT22;23334;54.316;10.182;2022-09-27T18:18:43;10.10;99.90
37478;DHT22;23334;54.316;10.182;2022-09-27T18:21:13;9.90;99.90
37478;DHT22;23334;54.316;10.182;2022-09-27T18:31:02;9.60;99.90
37478;DHT22;23334;54.316;10.182;2022-09-27T18:40:46;9.30;99.90
37478;DHT22;23334;54.316;10.182;2022-09-27T18:43:12;9.20;99.90
37478;DHT22;23334;54.316;10.182;2022-09-27T18:48:04;9.20;99.90
37478;DHT22;23334;54.316;10.182;2022-09-27T18:50:34;9.20;99.90
37478;DHT22;23334;54.316;10.182;2022-09-27T18:53:00;9.20;99.90
37478;DHT22;23334;54.316;10.182;2022-09-27T19:02:47;9.20;99.90
37478;DHT22;23334;54.316;10.182;2022-09-27T19:10:05;9.20;99.90
37478;DHT22;23334;54.316;10.182;2022-09-27T19:44:11;9.70;99.90
37478;DHT22;23334;54.316;10.182;2022-09-27T19:51:30;9.80;99.90
37478;DHT22;23334;54.316;10.182;2022-09-27T20:03:42;9.80;99.90
37478;DHT22;23334;54.316;10.182;2022-09-27T20:06:13;9.80;99.90
37478;DHT22;23334;54.316;10.182;2022-09-27T20:11:10;9.80;99.90
37478;DHT22;23334;54.316;10.182;2022-09-27T20:13:37;9.80;99.90
37478;DHT22;23334;54.316;10.182;2022-09-27T20:16:08;9.80;99.90
37478;DHT22;23334;54.316;10.182;2022-09-27T20:18:39;8.70;99.90
37478;DHT22;23334;54.316;10.182;2022-09-27T20:21:05;9.50;99.90
37478;DHT22;23334;54.316;10.182;2022-09-27T20:23:32;9.80;99.90
37478;DHT22;23334;54.316;10.182;2022-09-27T20:26:03;9.80;99.90
37478;DHT22;23334;54.316;10.182;2022-09-27T20:28:29;9.50;99.90
37478;DHT22;23334;54.316;10.182;2022-09-27T20:30:59;9.60;99.90
37478;DHT22;23334;54.316;10.182;2022-09-27T20:33:25;9.60;99.90
37478;DHT22;23334;54.316;10.182;2022-09-27T20:38:45;9.50;99.90
37478;DHT22;23334;54.316;10.182;2022-09-27T20:41:12;9.40;99.90
37478;DHT22;23334;54.316;10.182;2022-09-27T20:46:15;9.20;99.90
37478;DHT22;23334;54.316;10.182;2022-09-27T20:48:41;9.10;99.90
37478;DHT22;23334;54.316;10.182;2022-09-27T20:51:10;8.90;99.90
37478;DHT22;23334;54.316;10.182;2022-09-27T20:58:31;8.70;99.90
37478;DHT22;23334;54.316;10.182;2022-09-27T21:01:03;8.70;99.90
37478;DHT22;23334;54.316;10.182;2022-09-27T21:05:56;8.60;99.90
37478;DHT22;23334;54.316;10.182;2022-09-27T21:13:15;8.40;99.90
37478;DHT22;23334;54.316;10.182;2022-09-27T21:27:55;8.20;99.90
37478;DHT22;23334;54.316;10.182;2022-09-27T21:32:54;8.20;99.90
37478;DHT22;23334;54.316;10.182;2022-09-27T21:35:21;8.20;99.90
37478;DHT22;23334;54.316;10.182;2022-09-27T21:45:05;8.20;99.90
37478;DHT22;23334;54.316;10.182;2022-09-27T21:47:31;8.20;99.90
37478;DHT22;23334;54.316;10.182;2022-09-27T21:52:25;8.20;99.90
37478;DHT22;23334;54.316;10.182;2022-09-27T21:57:17;8.20;99.90
37478;DHT22;23334;54.316;10.182;2022-09-27T21:59:43;8.20;99.90
37478;DHT22;23334;54.316;10.182;2022-09-27T22:02:08;8.30;99.90
37478;DHT22;23334;54.316;10.182;2022-09-27T22:04:34;8.40;99.90
37478;DHT22;23334;54.316;10.182;2022-09-27T22:16:46;8.40;99.90
37478;DHT22;23334;54.316;10.182;2022-09-27T22:19:12;8.30;99.90
37478;DHT22;23334;54.316;10.182;2022-09-27T22:21:39;8.40;99.90
37478;DHT22;23334;54.316;10.182;2022-09-27T22:24:08;8.40;99.90
37478;DHT22;23334;54.316;10.182;2022-09-27T22:26:37;8.40;99.90
37478;DHT22;23334;54.316;10.182;2022-09-27T22:29:03;8.30;99.90
37478;DHT22;23334;54.316;10.182;2022-09-27T22:33:56;8.40;99.90
37478;DHT22;23334;54.316;10.182;2022-09-27T22:38:49;8.40;99.90
37478;DHT22;23334;54.316;10.182;2022-09-27T22:41:15;8.30;99.90
37478;DHT22;23334;54.316;10.182;2022-09-27T22:43:41;8.40;99.90
37478;DHT22;23334;54.316;10.182;2022-09-27T22:46:07;8.40;99.90
37478;DHT22;23334;54.316;10.182;2022-09-27T22:50:59;8.40;99.90
37478;DHT22;23334;54.316;10.182;2022-09-27T22:53:26;8.40;99.90
37478;DHT22;23334;54.316;10.182;2022-09-27T23:20:15;8.40;99.90
37478;DHT22;23334;54.316;10.182;2022-09-27T23:25:08;8.40;99.90
37478;DHT22;23334;54.316;10.182;2022-09-27T23:27:33;8.40;99.90
37478;DHT22;23334;54.316;10.182;2022-09-27T23:30:13;8.30;99.90
37478;DHT22;23334;54.316;10.182;2022-09-27T23:32:40;8.20;99.90
37478;DHT22;23334;54.316;10.182;2022-09-27T23:35:09;8.30;99.90
37478;DHT22;23334;54.316;10.182;2022-09-27T23:37:34;8.30;99.90
37478;DHT22;23334;54.316;10.182;2022-09-27T23:40:00;8.20;99.90
37478;DHT22;23334;54.316;10.182;2022-09-27T23:52:11;8.10;99.90
37478;DHT22;23334;54.316;10.182;2022-09-27T23:57:02;8.10;99.90
